Time;durP1;ratioP1;P1;durP2;ratioP2;P2;SDS_P1;SDS_P2;PMS_P1;PMS_P2;Temp;Humidity;BMP_temperature;BMP_pressure;BME280_temperature;BME280_humidity;BME280_pressure;Samples;Min_cycle;Max_cycle;Signal;HPM_P1;HPM_P2
2023/05/04 00:01:47;;;;;;;8.98;6.95;;;10.10;66.70;;;;;;5051353;28;20479;-67
2023/05/04 00:04:13;;;;;;;10.02;7.50;;;10.10;67.00;;;;;;5052561;28;20032;-66
2023/05/04 00:06:38;;;;;;;10.82;7.68;;;10.00;67.60;;;;;;5052646;28;20029;-68
2023/05/04 00:09:05;;;;;;;12.73;8.10;;;10.00;68.00;;;;;;5052274;28;20286;-67
2023/05/04 00:11:31;;;;;;;8.05;7.00;;;9.90;68.40;;;;;;5052961;28;20491;-67
2023/05/04 00:13:57;;;;;;;9.35;7.55;;;9.90;68.30;;;;;;5052110;28;20103;-67
2023/05/04 00:16:22;;;;;;;11.60;7.88;;;9.90;68.30;;;;;;5052276;28;20049;-66
2023/05/04 00:18:48;;;;;;;12.57;7.15;;;9.80;68.50;;;;;;5052142;28;20029;-67
2023/05/04 00:21:13;;;;;;;9.57;7.03;;;9.90;68.30;;;;;;5052358;28;20033;-66
2023/05/04 00:23:39;;;;;;;9.30;6.95;;;9.90;68.30;;;;;;5052181;28;20314;-67
2023/05/04 00:26:04;;;;;;;10.60;7.50;;;9.80;68.40;;;;;;5052282;28;20025;-68
2023/05/04 00:28:30;;;;;;;10.00;7.80;;;9.80;68.70;;;;;;5051840;28;20488;-66
2023/05/04 00:30:56;;;;;;;9.68;6.85;;;9.90;68.90;;;;;;5052021;28;20480;-66
2023/05/04 00:33:21;;;;;;;10.45;6.35;;;9.80;68.60;;;;;;5052097;28;20025;-67
2023/05/04 00:35:47;;;;;;;7.85;6.50;;;9.90;68.80;;;;;;5052005;28;20031;-66
2023/05/04 00:38:15;;;;;;;10.50;7.35;;;9.80;68.80;;;;;;5051841;28;20033;-66
2023/05/04 00:40:41;;;;;;;10.02;7.07;;;9.80;68.90;;;;;;5051852;28;20094;-66
2023/05/04 00:43:06;;;;;;;8.43;6.15;;;9.80;69.00;;;;;;5051701;28;20500;-67
2023/05/04 00:45:32;;;;;;;9.55;7.72;;;9.80;68.90;;;;;;5051529;28;20119;-67
2023/05/04 00:47:58;;;;;;;9.65;7.30;;;9.80;69.20;;;;;;5051863;28;20032;-66
2023/05/04 00:50:25;;;;;;;11.93;7.60;;;9.80;69.20;;;;;;5050204;28;20063;-68
2023/05/04 00:52:54;;;;;;;10.25;7.60;;;9.80;69.20;;;;;;5051689;28;20101;-66
2023/05/04 00:55:20;;;;;;;8.85;6.70;;;9.80;69.30;;;;;;5051517;28;20053;-66
2023/05/04 00:57:45;;;;;;;11.48;7.60;;;9.80;69.10;;;;;;5051926;28;20025;-67
2023/05/04 01:00:12;;;;;;;11.45;7.63;;;9.80;69.30;;;;;;5051420;28;20518;-66
2023/05/04 01:02:39;;;;;;;8.00;6.38;;;9.70;69.40;;;;;;5051506;28;20387;-67
2023/05/04 01:05:05;;;;;;;7.82;6.20;;;9.70;69.30;;;;;;5051658;28;20491;-66
2023/05/04 01:07:38;;;;;;;10.43;7.20;;;9.80;69.30;;;;;;5051286;28;20111;-67
2023/05/04 01:10:18;;;;;;;8.02;6.63;;;9.70;69.20;;;;;;5051398;28;20021;-67
2023/05/04 01:12:52;;;;;;;8.45;6.60;;;9.70;69.20;;;;;;5051338;28;20025;-66
2023/05/04 01:15:19;;;;;;;7.95;6.43;;;9.70;69.50;;;;;;5051297;28;20021;-67
2023/05/04 01:17:44;;;;;;;9.98;6.72;;;9.60;69.50;;;;;;5051102;28;20467;-66
2023/05/04 01:20:10;;;;;;;9.02;6.72;;;9.60;69.60;;;;;;5051192;28;20058;-68
2023/05/04 01:22:37;;;;;;;12.15;8.98;;;9.60;69.60;;;;;;5051018;28;20021;-67
2023/05/04 01:25:04;;;;;;;12.57;7.90;;;9.60;69.60;;;;;;5051102;28;20056;-67
2023/05/04 01:27:44;;;;;;;10.18;6.82;;;9.50;69.70;;;;;;5050807;28;20032;-66
2023/05/04 01:30:19;;;;;;;8.15;6.15;;;9.50;69.80;;;;;;5049813;28;20159;-66
2023/05/04 01:32:46;;;;;;;9.32;6.57;;;9.50;69.90;;;;;;5050853;28;20387;-67
2023/05/04 01:35:12;;;;;;;8.52;6.03;;;9.40;70.10;;;;;;5051068;28;20028;-68
2023/05/04 01:37:38;;;;;;;8.27;6.32;;;9.40;69.80;;;;;;5050805;28;20025;-67
2023/05/04 01:40:04;;;;;;;8.57;6.95;;;9.50;69.80;;;;;;5050888;28;20036;-67
2023/05/04 01:42:29;;;;;;;9.48;7.30;;;9.40;69.80;;;;;;5050837;28;20120;-67
2023/05/04 01:44:55;;;;;;;9.07;6.63;;;9.40;70.00;;;;;;5050920;28;20064;-68
2023/05/04 01:47:21;;;;;;;7.65;5.90;;;9.40;69.70;;;;;;5050683;28;20029;-68
2023/05/04 01:49:46;;;;;;;7.35;5.80;;;9.50;70.40;;;;;;5050840;28;20020;-68
2023/05/04 01:52:12;;;;;;;6.32;5.68;;;9.40;69.70;;;;;;5049875;28;20013;-67
2023/05/04 01:54:37;;;;;;;9.48;7.05;;;9.40;69.50;;;;;;5051005;28;20049;-68
2023/05/04 01:57:03;;;;;;;10.50;6.43;;;9.40;69.90;;;;;;5051038;28;20468;-68
2023/05/04 01:59:29;;;;;;;6.97;5.95;;;9.30;70.40;;;;;;5050485;28;20021;-67
2023/05/04 02:01:54;;;;;;;8.80;6.72;;;9.30;70.30;;;;;;5050109;28;20479;-67
2023/05/04 02:04:20;;;;;;;8.70;6.60;;;9.20;70.60;;;;;;5050455;28;20025;-69
2023/05/04 02:06:46;;;;;;;7.60;6.20;;;9.20;70.70;;;;;;5050326;28;20025;-68
2023/05/04 02:09:12;;;;;;;8.73;6.60;;;9.20;70.70;;;;;;5050276;28;20436;-69
2023/05/04 02:11:38;;;;;;;8.93;6.90;;;9.10;70.80;;;;;;5049161;28;20025;-68
2023/05/04 02:14:03;;;;;;;9.93;6.38;;;9.10;71.10;;;;;;5050238;28;20017;-69
2023/05/04 02:16:29;;;;;;;10.70;7.75;;;9.10;71.00;;;;;;5050332;28;20021;-68
2023/05/04 02:18:55;;;;;;;10.95;7.18;;;9.10;71.50;;;;;;5049935;28;20017;-66
2023/05/04 02:21:20;;;;;;;8.38;6.20;;;9.00;71.20;;;;;;5050273;28;20053;-69
2023/05/04 02:23:46;;;;;;;8.32;6.65;;;9.00;71.10;;;;;;5050430;28;20122;-69
2023/05/04 02:26:11;;;;;;;6.75;5.57;;;9.00;71.10;;;;;;5050567;28;20353;-69
2023/05/04 02:28:37;;;;;;;7.43;5.95;;;9.10;71.00;;;;;;5050133;28;20029;-67
2023/05/04 02:31:03;;;;;;;6.93;5.82;;;9.10;70.80;;;;;;5050664;28;20367;-68
2023/05/04 02:33:28;;;;;;;7.45;5.93;;;9.10;70.70;;;;;;5050002;28;20494;-69
2023/05/04 02:35:54;;;;;;;10.38;7.43;;;9.00;70.80;;;;;;5050072;28;20365;-69
2023/05/04 02:38:19;;;;;;;7.60;6.10;;;8.90;71.40;;;;;;5050150;28;20075;-69
2023/05/04 02:40:45;;;;;;;10.60;7.00;;;8.90;71.20;;;;;;5048647;28;20381;-68
2023/05/04 02:43:10;;;;;;;8.90;7.22;;;8.90;71.60;;;;;;5049957;28;20107;-67
2023/05/04 02:45:36;;;;;;;11.25;7.50;;;8.90;71.90;;;;;;5049897;28;20021;-68
2023/05/04 02:48:01;;;;;;;11.50;7.18;;;8.80;72.00;;;;;;5049784;28;20403;-69
2023/05/04 02:50:27;;;;;;;10.63;7.20;;;8.70;72.70;;;;;;5049860;28;20032;-69
2023/05/04 02:52:52;;;;;;;10.25;7.40;;;8.70;73.00;;;;;;5050180;28;20021;-69
2023/05/04 02:55:18;;;;;;;9.32;6.10;;;8.70;73.00;;;;;;5048974;28;20468;-68
2023/05/04 02:57:43;;;;;;;8.73;6.78;;;8.70;72.90;;;;;;5049283;28;20029;-69
2023/05/04 03:00:09;;;;;;;9.73;7.47;;;8.60;73.30;;;;;;5050131;28;20029;-67
2023/05/04 03:02:35;;;;;;;8.93;6.65;;;8.60;73.50;;;;;;5049549;28;20044;-67
2023/05/04 03:05:01;;;;;;;9.30;6.90;;;8.60;73.40;;;;;;5048529;28;20021;-68
2023/05/04 03:07:27;;;;;;;12.40;7.10;;;8.60;73.50;;;;;;5049484;28;20033;-67
2023/05/04 03:09:52;;;;;;;9.48;6.90;;;8.60;73.60;;;;;;5049690;28;20021;-67
2023/05/04 03:12:18;;;;;;;8.82;6.75;;;8.60;73.40;;;;;;5049509;28;20028;-67
2023/05/04 03:14:45;;;;;;;8.52;7.13;;;8.60;73.40;;;;;;5052074;28;20018;-67
2023/05/04 03:17:10;;;;;;;10.13;7.25;;;8.60;73.40;;;;;;5052149;28;20067;-68
2023/05/04 03:19:36;;;;;;;10.95;7.43;;;8.60;73.70;;;;;;5053517;28;20026;-68
2023/05/04 03:22:01;;;;;;;10.80;7.28;;;8.60;73.60;;;;;;5053572;28;20025;-68
2023/05/04 03:24:27;;;;;;;9.50;7.20;;;8.60;73.60;;;;;;5053451;28;20067;-67
2023/05/04 03:26:53;;;;;;;9.55;7.20;;;8.60;73.60;;;;;;5051850;28;20438;-69
2023/05/04 03:29:19;;;;;;;9.80;7.22;;;8.60;73.70;;;;;;5053299;28;20503;-69
2023/05/04 03:31:44;;;;;;;9.88;7.18;;;8.50;73.80;;;;;;5053318;28;20083;-69
2023/05/04 03:34:11;;;;;;;11.50;7.13;;;8.50;73.80;;;;;;5051853;28;20013;-68
2023/05/04 03:36:37;;;;;;;10.07;7.10;;;8.50;73.80;;;;;;5053265;28;20025;-66
2023/05/04 03:39:03;;;;;;;12.98;7.07;;;8.50;73.60;;;;;;5052936;28;20435;-69
2023/05/04 03:41:28;;;;;;;7.95;7.07;;;8.60;73.60;;;;;;5053163;28;20021;-69
2023/05/04 03:43:54;;;;;;;9.95;6.68;;;8.50;73.60;;;;;;5053011;28;20017;-68
2023/05/04 03:46:19;;;;;;;9.73;6.35;;;8.50;73.70;;;;;;5052922;28;20052;-67
2023/05/04 03:48:45;;;;;;;10.75;7.97;;;8.50;73.60;;;;;;5052930;28;20025;-68
2023/05/04 03:51:10;;;;;;;12.02;6.85;;;8.50;73.80;;;;;;5053194;28;20025;-68
2023/05/04 03:53:36;;;;;;;9.95;7.10;;;8.50;73.80;;;;;;5052871;28;20028;-68
2023/05/04 03:56:02;;;;;;;8.77;6.60;;;8.40;74.10;;;;;;5052830;28;20025;-67
2023/05/04 03:58:28;;;;;;;8.95;6.82;;;8.40;74.00;;;;;;5052888;28;20139;-69
2023/05/04 04:00:53;;;;;;;12.00;7.07;;;8.50;74.00;;;;;;5052774;28;20071;-68
2023/05/04 04:03:19;;;;;;;10.02;6.90;;;8.40;74.10;;;;;;5053228;28;20056;-68
2023/05/04 04:05:45;;;;;;;13.20;7.50;;;8.40;74.10;;;;;;5051591;28;20505;-68
2023/05/04 04:08:10;;;;;;;9.57;6.78;;;8.40;74.20;;;;;;5052746;28;20096;-67
2023/05/04 04:10:36;;;;;;;10.25;7.47;;;8.40;74.10;;;;;;5052516;28;20031;-68
2023/05/04 04:13:02;;;;;;;9.18;7.25;;;8.40;74.30;;;;;;5051420;28;20044;-68
2023/05/04 04:15:27;;;;;;;10.07;6.75;;;8.50;74.20;;;;;;5052454;28;20021;-68
2023/05/04 04:17:53;;;;;;;10.18;7.82;;;8.40;74.10;;;;;;5052613;28;20060;-68
2023/05/04 04:20:18;;;;;;;9.23;7.30;;;8.40;74.30;;;;;;5052317;28;20124;-68
2023/05/04 04:22:44;;;;;;;9.23;7.15;;;8.40;74.40;;;;;;5052613;28;20205;-68
2023/05/04 04:25:09;;;;;;;10.75;7.13;;;8.40;74.20;;;;;;5051580;28;20036;-68
2023/05/04 04:27:35;;;;;;;12.18;7.82;;;8.40;74.20;;;;;;5052185;28;20028;-68
2023/05/04 04:30:02;;;;;;;12.07;7.70;;;8.40;74.20;;;;;;5052168;28;20481;-68
2023/05/04 04:32:28;;;;;;;9.82;7.32;;;8.50;74.30;;;;;;5052090;28;20029;-67
2023/05/04 04:34:54;;;;;;;14.77;7.70;;;8.50;74.30;;;;;;5052127;28;20092;-68
2023/05/04 04:37:19;;;;;;;11.13;7.40;;;8.50;74.40;;;;;;5051882;28;20039;-67
2023/05/04 04:39:45;;;;;;;9.90;7.53;;;8.50;74.50;;;;;;5051995;28;20112;-67
2023/05/04 04:42:11;;;;;;;10.15;7.13;;;8.50;74.40;;;;;;5051982;28;20043;-69
2023/05/04 04:44:36;;;;;;;10.18;8.15;;;8.50;74.40;;;;;;5052074;28;20071;-68
2023/05/04 04:47:02;;;;;;;10.63;7.43;;;8.50;74.40;;;;;;5051640;28;20033;-66
2023/05/04 04:49:27;;;;;;;9.85;7.63;;;8.50;74.30;;;;;;5052078;28;20495;-67
2023/05/04 04:51:54;;;;;;;11.88;8.48;;;8.60;74.30;;;;;;5050409;28;20472;-67
2023/05/04 04:54:19;;;;;;;11.05;7.93;;;8.60;74.40;;;;;;5051646;28;20021;-69
2023/05/04 04:56:45;;;;;;;11.30;8.38;;;8.60;74.40;;;;;;5051670;28;20029;-69
2023/05/04 04:59:12;;;;;;;12.57;8.35;;;8.60;74.40;;;;;;5051662;28;20059;-68
2023/05/04 05:01:38;;;;;;;9.80;7.72;;;8.70;74.30;;;;;;5050433;28;20040;-67
2023/05/04 05:04:04;;;;;;;10.43;7.45;;;8.70;74.10;;;;;;5051528;28;20399;-69
2023/05/04 05:06:29;;;;;;;8.35;7.20;;;8.70;74.00;;;;;;5051627;28;20107;-69
2023/05/04 05:08:55;;;;;;;9.90;7.78;;;8.80;73.90;;;;;;5051230;28;20487;-68
2023/05/04 05:11:21;;;;;;;10.32;7.57;;;8.90;73.50;;;;;;5051390;28;20025;-69
2023/05/04 05:13:46;;;;;;;12.93;7.95;;;9.00;73.20;;;;;;5051365;28;20454;-68
2023/05/04 05:16:12;;;;;;;12.45;8.05;;;9.10;72.90;;;;;;5051384;28;20033;-69
2023/05/04 05:18:38;;;;;;;9.05;7.18;;;9.10;72.70;;;;;;5051273;28;20135;-68
2023/05/04 05:21:04;;;;;;;9.77;7.22;;;9.20;72.60;;;;;;5051318;28;20372;-68
2023/05/04 05:23:30;;;;;;;10.88;7.70;;;9.30;72.50;;;;;;5050981;28;20035;-68
2023/05/04 05:25:56;;;;;;;9.68;7.25;;;9.50;72.00;;;;;;5051157;28;20112;-68
2023/05/04 05:28:22;;;;;;;10.27;7.00;;;9.80;71.20;;;;;;5049588;28;20123;-67
2023/05/04 05:30:50;;;;;;;10.18;6.82;;;10.10;70.40;;;;;;5051033;28;20053;-68
2023/05/04 05:33:16;;;;;;;9.48;7.20;;;10.40;69.10;;;;;;5050944;28;20500;-67
2023/05/04 05:35:42;;;;;;;10.45;7.13;;;10.80;67.90;;;;;;5050971;28;20056;-68
2023/05/04 05:38:08;;;;;;;10.38;6.25;;;11.00;67.30;;;;;;5050285;28;20057;-69
2023/05/04 05:40:35;;;;;;;8.77;6.80;;;11.30;66.10;;;;;;5050821;28;20055;-68
2023/05/04 05:43:01;;;;;;;8.68;6.70;;;11.40;65.30;;;;;;5050655;28;20025;-67
2023/05/04 05:45:26;;;;;;;7.80;6.25;;;11.30;64.70;;;;;;5050640;28;20387;-69
2023/05/04 05:47:52;;;;;;;11.63;6.78;;;11.50;64.70;;;;;;5050635;28;20103;-68
2023/05/04 05:50:17;;;;;;;9.35;6.88;;;11.70;63.80;;;;;;5050618;28;20100;-67
2023/05/04 05:52:43;;;;;;;9.82;5.95;;;11.70;63.70;;;;;;5050528;28;20107;-67
2023/05/04 05:55:09;;;;;;;9.57;6.88;;;11.60;63.70;;;;;;5050646;28;20017;-69
2023/05/04 05:57:34;;;;;;;9.27;6.22;;;11.70;63.30;;;;;;5050864;28;20039;-68
2023/05/04 06:00:00;;;;;;;10.10;6.20;;;12.30;63.00;;;;;;5049186;28;20024;-68
2023/05/04 06:02:25;;;;;;;10.30;6.68;;;12.90;61.40;;;;;;5050771;28;20025;-67
2023/05/04 06:04:51;;;;;;;9.23;6.47;;;13.10;59.70;;;;;;5050479;28;20028;-68
2023/05/04 06:07:18;;;;;;;11.60;6.15;;;13.10;59.40;;;;;;5050574;28;20435;-68
2023/05/04 06:09:44;;;;;;;7.53;5.70;;;12.90;59.50;;;;;;5050368;28;20021;-69
2023/05/04 06:12:12;;;;;;;8.45;5.90;;;13.00;59.70;;;;;;5050172;28;20021;-69
2023/05/04 06:14:41;;;;;;;8.55;6.65;;;13.30;59.30;;;;;;5050394;28;20027;-69
2023/05/04 06:17:06;;;;;;;6.40;5.32;;;13.50;58.80;;;;;;5050251;28;20476;-67
2023/05/04 06:19:37;;;;;;;9.93;6.15;;;13.80;58.20;;;;;;5050307;28;20020;-68
2023/05/04 06:22:03;;;;;;;6.75;5.18;;;13.90;57.10;;;;;;5050096;28;20391;-66
2023/05/04 06:24:29;;;;;;;8.10;5.53;;;14.00;57.00;;;;;;5049152;28;20021;-66
2023/05/04 06:26:55;;;;;;;8.98;6.30;;;14.00;56.80;;;;;;5050230;28;20040;-66
2023/05/04 06:29:21;;;;;;;7.40;5.55;;;14.30;56.40;;;;;;5049614;28;20017;-67
2023/05/04 06:31:46;;;;;;;7.05;5.40;;;14.50;56.10;;;;;;5050378;28;20028;-68
2023/05/04 06:34:14;;;;;;;10.90;6.18;;;14.90;55.40;;;;;;5050366;28;20052;-68
2023/05/04 06:36:39;;;;;;;8.25;6.00;;;15.10;54.50;;;;;;5050099;28;20029;-69
2023/05/04 06:39:05;;;;;;;7.07;4.82;;;15.30;53.80;;;;;;5050083;28;20019;-67
2023/05/04 06:41:30;;;;;;;6.90;5.50;;;15.00;54.10;;;;;;5050084;28;20064;-68
2023/05/04 06:43:56;;;;;;;7.45;5.57;;;15.00;54.30;;;;;;5050079;28;20009;-69
2023/05/04 06:46:22;;;;;;;6.85;5.55;;;15.00;54.50;;;;;;5050290;28;20079;-69
2023/05/04 06:48:47;;;;;;;7.20;5.20;;;15.20;54.40;;;;;;5052281;28;20040;-68
2023/05/04 06:51:13;;;;;;;7.93;5.55;;;15.40;54.10;;;;;;5054160;28;20017;-70
2023/05/04 06:53:38;;;;;;;8.57;5.45;;;15.40;53.90;;;;;;5053975;28;20597;-69
2023/05/04 06:56:06;;;;;;;7.80;4.93;;;15.20;54.10;;;;;;5053877;28;20025;-68
2023/05/04 06:58:31;;;;;;;5.35;4.72;;;15.10;54.60;;;;;;5053942;28;20104;-67
2023/05/04 07:00:57;;;;;;;8.23;5.25;;;15.10;54.60;;;;;;5054042;28;20556;-68
2023/05/04 07:03:23;;;;;;;6.65;4.88;;;15.10;54.40;;;;;;5053813;28;20055;-68
2023/05/04 07:05:49;;;;;;;6.60;5.43;;;15.00;54.40;;;;;;5053727;28;20033;-67
2023/05/04 07:08:16;;;;;;;7.18;5.00;;;15.00;54.20;;;;;;5053963;28;20028;-68
2023/05/04 07:10:42;;;;;;;5.65;4.53;;;14.90;54.00;;;;;;5052323;28;20025;-67
2023/05/04 07:13:08;;;;;;;5.88;4.95;;;15.00;54.40;;;;;;5053659;28;20025;-67
2023/05/04 07:15:33;;;;;;;9.25;5.47;;;15.20;54.30;;;;;;5053568;28;20051;-67
2023/05/04 07:18:00;;;;;;;7.22;4.57;;;15.30;53.80;;;;;;5053581;28;20531;-67
2023/05/04 07:20:26;;;;;;;9.30;5.70;;;15.30;53.90;;;;;;5053321;28;20060;-67
2023/05/04 07:22:55;;;;;;;6.35;4.50;;;15.20;53.70;;;;;;5053538;28;20052;-68
2023/05/04 07:25:22;;;;;;;6.78;4.90;;;15.40;54.10;;;;;;5053225;28;20036;-65
2023/05/04 07:27:48;;;;;;;9.07;5.20;;;16.00;53.50;;;;;;5053668;28;20025;-67
2023/05/04 07:30:14;;;;;;;6.90;5.00;;;15.90;52.80;;;;;;5052025;28;20368;-68
2023/05/04 07:32:39;;;;;;;5.15;4.07;;;15.90;52.90;;;;;;5053227;28;20036;-68
2023/05/04 07:35:05;;;;;;;7.43;5.35;;;16.20;53.00;;;;;;5053379;28;20557;-66
2023/05/04 07:37:32;;;;;;;7.18;5.10;;;16.30;52.40;;;;;;5053482;28;20021;-67
2023/05/04 07:39:59;;;;;;;5.82;4.60;;;16.40;52.40;;;;;;5052949;28;20021;-67
2023/05/04 07:42:26;;;;;;;7.25;5.18;;;16.60;52.30;;;;;;5053175;28;20106;-67
2023/05/04 07:44:52;;;;;;;8.77;4.97;;;16.40;52.10;;;;;;5052754;28;20345;-66
2023/05/04 07:47:18;;;;;;;6.75;5.03;;;16.30;52.60;;;;;;5052851;28;20101;-68
2023/05/04 07:49:43;;;;;;;6.22;5.57;;;16.20;52.80;;;;;;5052940;28;20498;-67
2023/05/04 07:52:09;;;;;;;5.50;4.60;;;16.00;53.10;;;;;;5052749;28;20104;-67
2023/05/04 07:54:35;;;;;;;5.60;4.50;;;16.00;53.60;;;;;;5052956;28;20021;-67
2023/05/04 07:57:02;;;;;;;10.48;5.53;;;16.00;53.90;;;;;;5052702;28;20112;-67
2023/05/04 07:59:28;;;;;;;6.75;4.70;;;16.00;53.60;;;;;;5051979;28;20030;-67
2023/05/04 08:01:54;;;;;;;8.68;4.60;;;16.00;53.80;;;;;;5052777;28;20036;-68
2023/05/04 08:04:20;;;;;;;6.13;3.97;;;16.10;53.80;;;;;;5052695;28;20029;-68
2023/05/04 08:06:45;;;;;;;5.82;4.35;;;16.10;53.60;;;;;;5052332;28;20031;-67
2023/05/04 08:09:11;;;;;;;6.93;4.90;;;16.10;53.30;;;;;;5051568;28;20033;-69
2023/05/04 08:11:38;;;;;;;7.90;5.30;;;16.20;53.00;;;;;;5052525;28;20023;-68
2023/05/04 08:14:04;;;;;;;7.03;4.90;;;16.20;53.00;;;;;;5052542;28;20067;-68
2023/05/04 08:16:29;;;;;;;5.82;4.30;;;16.30;52.80;;;;;;5052370;28;20021;-67
2023/05/04 08:18:56;;;;;;;7.38;4.63;;;16.30;52.60;;;;;;5052018;28;20061;-68
2023/05/04 08:21:22;;;;;;;7.75;4.57;;;16.30;52.50;;;;;;5051573;28;20077;-68
2023/05/04 08:23:48;;;;;;;10.18;4.82;;;16.50;52.20;;;;;;5052168;28;20056;-68
2023/05/04 08:26:14;;;;;;;5.97;4.28;;;16.50;52.00;;;;;;5052274;28;20112;-68
2023/05/04 08:28:39;;;;;;;8.02;4.70;;;16.60;52.40;;;;;;5052098;28;20328;-67
2023/05/04 08:31:06;;;;;;;6.93;5.03;;;16.70;52.00;;;;;;5052504;28;20089;-68
2023/05/04 08:33:32;;;;;;;5.18;3.97;;;16.60;50.80;;;;;;5051936;28;20025;-68
2023/05/04 08:35:58;;;;;;;6.70;4.32;;;16.40;51.70;;;;;;5052087;28;20017;-68
2023/05/04 08:38:24;;;;;;;7.22;4.70;;;16.40;52.00;;;;;;5052081;28;20322;-69
2023/05/04 08:40:50;;;;;;;6.85;4.60;;;16.40;52.00;;;;;;5052423;28;20029;-68
2023/05/04 08:43:15;;;;;;;7.47;4.72;;;16.40;52.20;;;;;;5052150;28;20052;-68
2023/05/04 08:45:41;;;;;;;5.88;4.18;;;16.50;52.10;;;;;;5052307;28;20032;-67
2023/05/04 08:48:07;;;;;;;6.20;4.93;;;16.50;52.00;;;;;;5033782;28;20025;-67
2023/05/04 08:50:33;;;;;;;6.72;5.03;;;16.50;51.50;;;;;;5051697;28;20311;-69
2023/05/04 08:53:02;;;;;;;5.70;3.95;;;16.50;51.80;;;;;;5051840;28;20048;-67
2023/05/04 08:55:30;;;;;;;8.20;4.38;;;16.70;52.10;;;;;;5051585;28;20037;-68
2023/05/04 08:58:00;;;;;;;8.45;4.80;;;16.70;51.70;;;;;;5051597;28;20104;-68
2023/05/04 09:00:27;;;;;;;8.70;4.50;;;16.70;51.50;;;;;;5051495;28;20607;-68
2023/05/04 09:02:54;;;;;;;6.43;4.60;;;16.70;51.50;;;;;;5051490;28;20025;-70
2023/05/04 09:05:20;;;;;;;7.82;5.28;;;16.70;51.40;;;;;;5051270;28;20043;-68
2023/05/04 09:07:47;;;;;;;5.60;4.22;;;16.70;51.30;;;;;;5051450;28;20467;-67
2023/05/04 09:10:13;;;;;;;7.10;4.57;;;16.90;51.70;;;;;;5051389;28;20032;-68
2023/05/04 09:12:38;;;;;;;5.35;4.40;;;16.90;51.20;;;;;;5033507;28;20039;-66
2023/05/04 09:15:16;;;;;;;5.90;4.25;;;17.00;51.20;;;;;;5051207;28;20040;-67
2023/05/04 09:17:42;;;;;;;7.47;5.00;;;17.20;51.30;;;;;;5051186;28;20383;-66
2023/05/04 09:20:08;;;;;;;7.13;4.65;;;17.30;50.60;;;;;;5050936;28;20458;-66
2023/05/04 09:22:34;;;;;;;5.85;4.38;;;17.20;50.50;;;;;;5051213;28;20521;-67
2023/05/04 09:25:10;;;;;;;5.70;4.03;;;17.40;51.20;;;;;;5050836;28;20116;-67
2023/05/04 09:27:36;;;;;;;6.80;3.90;;;17.40;51.20;;;;;;5050982;28;20021;-66
2023/05/04 09:30:01;;;;;;;4.10;3.45;;;17.60;51.30;;;;;;5050841;28;20453;-66
2023/05/04 09:32:27;;;;;;;6.28;4.47;;;17.90;51.20;;;;;;5051147;28;20029;-67
2023/05/04 09:34:53;;;;;;;5.90;4.82;;;18.10;50.90;;;;;;5051065;28;20021;-67
2023/05/04 09:37:20;;;;;;;5.97;4.50;;;18.30;50.80;;;;;;5050556;28;20036;-67
2023/05/04 09:39:58;;;;;;;6.80;4.90;;;18.30;51.20;;;;;;5050706;28;20049;-67
2023/05/04 09:42:25;;;;;;;6.53;4.47;;;18.30;50.30;;;;;;5050571;28;20609;-67
2023/05/04 09:45:05;;;;;;;6.18;5.00;;;18.30;50.50;;;;;;5050458;28;20083;-67
2023/05/04 09:47:38;;;;;;;5.90;3.90;;;18.20;50.60;;;;;;5050231;28;20430;-67
2023/05/04 09:50:32;;;;;;;7.55;5.15;;;18.20;51.30;;;;;;5050579;28;20084;-67
2023/05/04 09:52:58;;;;;;;7.15;5.03;;;18.30;51.00;;;;;;5050380;28;20070;-68
2023/05/04 09:55:24;;;;;;;8.30;5.15;;;18.20;50.80;;;;;;5050369;28;20061;-66
2023/05/04 09:57:50;;;;;;;7.78;5.38;;;18.20;50.70;;;;;;5050407;28;20083;-67
2023/05/04 10:00:16;;;;;;;6.43;5.25;;;18.20;51.00;;;;;;5050408;28;20033;-66
2023/05/04 10:02:43;;;;;;;8.73;5.97;;;18.20;50.80;;;;;;5050119;28;20025;-67
2023/05/04 10:05:13;;;;;;;7.68;4.97;;;18.20;50.90;;;;;;5050788;28;20029;-67
2023/05/04 10:07:39;;;;;;;8.93;5.53;;;18.20;51.30;;;;;;5050136;28;20020;-67
2023/05/04 10:10:06;;;;;;;7.15;4.35;;;18.30;51.40;;;;;;5050166;28;20352;-67
2023/05/04 10:12:32;;;;;;;9.05;5.60;;;18.50;51.40;;;;;;5050331;28;20430;-67
2023/05/04 10:14:58;;;;;;;8.15;5.88;;;18.60;51.10;;;;;;5050650;28;20025;-67
2023/05/04 10:17:52;;;;;;;5.95;4.70;;;18.80;50.70;;;;;;5050440;28;20430;-67
2023/05/04 10:20:40;;;;;;;9.15;5.18;;;18.90;50.70;;;;;;5032310;28;20399;-67
2023/05/04 10:23:30;;;;;;;5.68;4.30;;;19.00;50.60;;;;;;5049787;28;20159;-67
2023/05/04 10:26:21;;;;;;;7.05;5.28;;;19.10;50.40;;;;;;5050013;28;20091;-67
2023/05/04 10:28:56;;;;;;;7.87;6.03;;;19.10;49.40;;;;;;5050045;28;20096;-66
2023/05/04 10:31:22;;;;;;;6.72;5.25;;;19.10;49.00;;;;;;5049998;28;20029;-67
2023/05/04 10:33:47;;;;;;;9.80;5.75;;;19.10;49.50;;;;;;5049918;28;20021;-67
2023/05/04 10:36:13;;;;;;;8.35;5.45;;;19.10;48.80;;;;;;5050099;28;20550;-67
2023/05/04 10:38:40;;;;;;;7.65;5.43;;;19.10;48.90;;;;;;5049976;28;20064;-67
2023/05/04 10:41:20;;;;;;;8.45;5.60;;;19.20;49.80;;;;;;5050026;28;20024;-67
2023/05/04 10:43:52;;;;;;;6.38;5.03;;;19.20;48.90;;;;;;5049866;28;20021;-68
2023/05/04 10:46:19;;;;;;;8.32;4.97;;;19.20;48.30;;;;;;5050228;28;20437;-67
2023/05/04 10:48:44;;;;;;;7.82;5.32;;;19.40;47.80;;;;;;5049957;28;20021;-67
2023/05/04 10:51:21;;;;;;;7.90;4.70;;;19.50;46.60;;;;;;5050001;28;20097;-67
2023/05/04 10:53:47;;;;;;;8.35;5.03;;;19.60;46.90;;;;;;5050068;28;20096;-66
2023/05/04 10:56:23;;;;;;;7.43;5.10;;;19.80;46.10;;;;;;5050072;28;20032;-65
2023/05/04 10:58:49;;;;;;;8.10;4.95;;;19.80;46.40;;;;;;5050196;28;20491;-66
2023/05/04 11:01:16;;;;;;;7.50;5.35;;;20.00;46.90;;;;;;5049621;28;20029;-66
2023/05/04 11:03:42;;;;;;;11.13;5.80;;;20.10;46.30;;;;;;5050340;28;20094;-66
2023/05/04 11:06:35;;;;;;;7.05;4.75;;;20.20;46.00;;;;;;5049658;28;20096;-66
2023/05/04 11:09:02;;;;;;;8.68;5.22;;;20.20;46.30;;;;;;5047661;28;20178;-66
2023/05/04 11:11:28;;;;;;;9.40;5.60;;;20.30;45.80;;;;;;5050089;28;20021;-67
2023/05/04 11:13:54;;;;;;;8.55;5.15;;;20.20;45.50;;;;;;5050008;28;20032;-67
2023/05/04 11:16:24;;;;;;;8.65;5.43;;;20.30;46.00;;;;;;5049629;28;20368;-67
2023/05/04 11:18:50;;;;;;;7.63;5.93;;;20.40;45.90;;;;;;5049826;28;20522;-67
2023/05/04 11:21:26;;;;;;;6.63;5.10;;;20.40;45.70;;;;;;5049603;28;20100;-66
2023/05/04 11:23:58;;;;;;;8.23;5.40;;;20.40;46.00;;;;;;5049631;28;20361;-67
2023/05/04 11:26:25;;;;;;;8.50;5.65;;;20.50;45.80;;;;;;5049440;28;20043;-66
2023/05/04 11:28:50;;;;;;;7.60;5.38;;;20.60;45.70;;;;;;5049507;28;20021;-67
2023/05/04 11:31:18;;;;;;;9.15;5.57;;;20.70;45.60;;;;;;5049372;28;20025;-67
2023/05/04 11:33:51;;;;;;;8.15;5.50;;;20.70;45.20;;;;;;5049571;28;20096;-66
2023/05/04 11:36:18;;;;;;;8.90;5.30;;;20.80;45.60;;;;;;5052602;28;20053;-67
2023/05/04 11:38:43;;;;;;;7.30;5.30;;;20.80;45.30;;;;;;5053373;28;20021;-67
2023/05/04 11:41:09;;;;;;;8.68;5.65;;;20.80;45.30;;;;;;5053328;28;20024;-67
2023/05/04 11:43:37;;;;;;;8.93;6.25;;;20.90;45.20;;;;;;5053377;28;20052;-66
2023/05/04 11:46:04;;;;;;;9.43;6.30;;;20.90;45.30;;;;;;5052848;28;20166;-66
2023/05/04 11:48:33;;;;;;;7.63;5.28;;;21.00;45.10;;;;;;5034808;28;20228;-66
2023/05/04 11:50:59;;;;;;;10.43;6.10;;;21.20;45.10;;;;;;5053081;28;20028;-66
2023/05/04 11:53:25;;;;;;;8.13;5.70;;;21.30;44.70;;;;;;5052788;28;20017;-66
2023/05/04 11:55:54;;;;;;;6.10;5.00;;;21.30;44.70;;;;;;5053018;28;20460;-67
2023/05/04 11:58:24;;;;;;;8.98;5.70;;;21.50;44.70;;;;;;5052815;28;20391;-67
2023/05/04 12:00:55;;;;;;;9.15;5.13;;;21.60;44.40;;;;;;5052629;28;20108;-67
2023/05/04 12:03:40;;;;;;;8.13;5.45;;;21.80;44.30;;;;;;5034696;28;20108;-66
2023/05/04 12:06:06;;;;;;;7.43;5.20;;;21.80;43.80;;;;;;5052671;28;20032;-66
2023/05/04 12:08:34;;;;;;;8.43;5.85;;;21.80;43.40;;;;;;5052301;28;20029;-67
2023/05/04 12:11:15;;;;;;;8.85;6.68;;;22.00;43.80;;;;;;5052595;28;20490;-66
2023/05/04 12:13:42;;;;;;;8.23;5.88;;;22.00;43.00;;;;;;5052574;28;20499;-66
2023/05/04 12:16:18;;;;;;;7.05;5.90;;;22.00;43.30;;;;;;5052480;28;20468;-66
2023/05/04 12:18:46;;;;;;;8.43;6.10;;;21.90;43.00;;;;;;5052436;28;20028;-67
2023/05/04 12:21:13;;;;;;;10.38;6.90;;;21.80;42.90;;;;;;5052366;28;20052;-67
2023/05/04 12:23:39;;;;;;;10.15;6.45;;;21.80;43.10;;;;;;5052504;28;20438;-67
2023/05/04 12:26:06;;;;;;;8.60;5.80;;;21.90;43.20;;;;;;5051916;28;20032;-66
2023/05/04 12:28:33;;;;;;;9.05;6.32;;;22.10;42.30;;;;;;5050940;28;20083;-67
2023/05/04 12:30:59;;;;;;;7.55;6.10;;;22.20;42.20;;;;;;5052107;28;20099;-67
2023/05/04 12:33:25;;;;;;;9.30;6.03;;;22.20;42.10;;;;;;5051802;28;20075;-67
2023/05/04 12:35:50;;;;;;;7.85;5.50;;;22.20;42.20;;;;;;5051943;28;20531;-66
2023/05/04 12:38:16;;;;;;;9.02;6.43;;;22.30;42.60;;;;;;5052222;28;20036;-67
2023/05/04 12:40:45;;;;;;;9.23;6.07;;;22.40;42.20;;;;;;5051967;28;20054;-66
2023/05/04 12:43:11;;;;;;;9.25;5.35;;;22.60;41.70;;;;;;5051835;28;20025;-67
2023/05/04 12:45:36;;;;;;;9.52;7.22;;;22.90;41.50;;;;;;5050449;28;20100;-66
2023/05/04 12:48:02;;;;;;;10.57;6.13;;;22.90;39.60;;;;;;5051675;28;20183;-66